Portada
METAR-TAF:

METAR-TAF

Aeroports :

Thule, Grenlàndia

latitud: 76-32N, longitud: 068-42W, altitud: 77 m

Observació

L'informe es va fer fa 11 minuts, a les 17:26 UTC
Vent 13 kt del Oest
Temperatura -13°C
Humitat 92%
Pressió 1011 hPa
Visibilitat: 3000 m
Cel cobert a una alçada de 1100 ft
torb alta de neu, boirina

METAR: BGTL 291726Z AUTO 26013KT 3000 BLSN BR OVC011 M13/M14 A2986 RMK AO2 CIG 002 RWY26 SLP100 TSNO $

Hora: 14:37 (17:37 UTC)


TAF: manca

Observacions i pronòstics meteorològics de més de 4000 aeroports (METAR i TAF).

Les estacions disponibles són els punts grocs i vermells al mapa.

Posi el ratolí al punt desitjat per veure el nom de l'estació.

Feu clic per veure les observacions i els pronòstics meteorològics.

Per canviar el mapa: feu clic els botons verds amb una creu de color negre per apropar; al botó verd amb un guió per allunyar la imatge; o en les fletxes verdes per a mapes adjacents.


METAR-TAF: